sensor_id;sensor_type;location;lat;lon;timestamp;temperature;humidity
16980;DHT22;42288;52.182;21.156;2022-12-18T00:02:10;-1.30;95.70
16980;DHT22;42288;52.182;21.156;2022-12-18T00:04:36;-1.40;95.80
16980;DHT22;42288;52.182;21.156;2022-12-18T00:07:01;-1.40;96.00
16980;DHT22;42288;52.182;21.156;2022-12-18T00:09:27;-1.40;95.50
16980;DHT22;42288;52.182;21.156;2022-12-18T00:11:52;-1.40;95.20
16980;DHT22;42288;52.182;21.156;2022-12-18T00:14:18;-1.40;95.50
16980;DHT22;42288;52.182;21.156;2022-12-18T00:16:45;-1.40;95.30
16980;DHT22;42288;52.182;21.156;2022-12-18T00:19:11;-1.50;95.40
16980;DHT22;42288;52.182;21.156;2022-12-18T00:21:37;-1.50;95.30
16980;DHT22;42288;52.182;21.156;2022-12-18T00:24:03;-1.60;95.50
16980;DHT22;42288;52.182;21.156;2022-12-18T00:26:30;-1.60;95.60
16980;DHT22;42288;52.182;21.156;2022-12-18T00:29:14;-1.70;95.50
16980;DHT22;42288;52.182;21.156;2022-12-18T00:31:41;-1.90;95.90
16980;DHT22;42288;52.182;21.156;2022-12-18T00:34:10;-1.80;96.50
16980;DHT22;42288;52.182;21.156;2022-12-18T00:36:36;-1.70;96.30
16980;DHT22;42288;52.182;21.156;2022-12-18T00:39:03;-1.60;95.80
16980;DHT22;42288;52.182;21.156;2022-12-18T00:41:29;-1.70;96.00
16980;DHT22;42288;52.182;21.156;2022-12-18T00:44:16;-1.70;96.20
16980;DHT22;42288;52.182;21.156;2022-12-18T00:46:43;-1.80;96.60
16980;DHT22;42288;52.182;21.156;2022-12-18T00:49:09;-1.90;96.60
16980;DHT22;42288;52.182;21.156;2022-12-18T00:51:37;-1.90;96.90
16980;DHT22;42288;52.182;21.156;2022-12-18T00:54:03;-1.70;96.90
16980;DHT22;42288;52.182;21.156;2022-12-18T00:56:28;-1.80;96.60
16980;DHT22;42288;52.182;21.156;2022-12-18T00:58:54;-1.60;96.80
16980;DHT22;42288;52.182;21.156;2022-12-18T01:01:20;-1.60;96.90
16980;DHT22;42288;52.182;21.156;2022-12-18T01:03:45;-1.70;96.80
16980;DHT22;42288;52.182;21.156;2022-12-18T01:06:14;-1.70;96.70
16980;DHT22;42288;52.182;21.156;2022-12-18T01:08:40;-1.60;96.80
16980;DHT22;42288;52.182;21.156;2022-12-18T01:11:14;-1.50;96.50
16980;DHT22;42288;52.182;21.156;2022-12-18T01:13:40;-1.80;96.30
16980;DHT22;42288;52.182;21.156;2022-12-18T01:16:06;-1.80;97.20
16980;DHT22;42288;52.182;21.156;2022-12-18T01:18:32;-1.80;97.20
16980;DHT22;42288;52.182;21.156;2022-12-18T01:20:58;-1.70;97.40
16980;DHT22;42288;52.182;21.156;2022-12-18T01:23:26;-1.60;97.40
16980;DHT22;42288;52.182;21.156;2022-12-18T01:25:52;-1.80;97.10
16980;DHT22;42288;52.182;21.156;2022-12-18T01:28:17;-1.70;97.30
16980;DHT22;42288;52.182;21.156;2022-12-18T01:30:43;-1.60;97.30
16980;DHT22;42288;52.182;21.156;2022-12-18T01:33:08;-1.70;96.70
16980;DHT22;42288;52.182;21.156;2022-12-18T01:35:40;-1.60;96.90
16980;DHT22;42288;52.182;21.156;2022-12-18T01:38:05;-1.70;96.60
16980;DHT22;42288;52.182;21.156;2022-12-18T01:40:31;-1.60;97.10
16980;DHT22;42288;52.182;21.156;2022-12-18T01:42:56;-1.50;97.30
16980;DHT22;42288;52.182;21.156;2022-12-18T01:45:26;-1.40;97.00
16980;DHT22;42288;52.182;21.156;2022-12-18T01:48:00;-1.50;97.10
16980;DHT22;42288;52.182;21.156;2022-12-18T01:50:39;-1.50;96.90
16980;DHT22;42288;52.182;21.156;2022-12-18T01:53:11;-1.70;96.80
16980;DHT22;42288;52.182;21.156;2022-12-18T01:55:48;-1.70;97.00
16980;DHT22;42288;52.182;21.156;2022-12-18T01:58:15;-1.70;97.40
16980;DHT22;42288;52.182;21.156;2022-12-18T02:00:41;-1.50;97.70
16980;DHT22;42288;52.182;21.156;2022-12-18T02:03:07;-1.30;97.60
16980;DHT22;42288;52.182;21.156;2022-12-18T02:08:10;-1.40;97.00
16980;DHT22;42288;52.182;21.156;2022-12-18T02:16:39;-1.10;97.00
16980;DHT22;42288;52.182;21.156;2022-12-18T02:27:39;-1.00;96.10
16980;DHT22;42288;52.182;21.156;2022-12-18T02:30:07;-0.90;95.90
16980;DHT22;42288;52.182;21.156;2022-12-18T02:32:37;-0.80;95.40
16980;DHT22;42288;52.182;21.156;2022-12-18T02:35:06;-0.90;95.00
16980;DHT22;42288;52.182;21.156;2022-12-18T02:37:34;-1.00;94.80
16980;DHT22;42288;52.182;21.156;2022-12-18T02:40:02;-0.90;94.90
16980;DHT22;42288;52.182;21.156;2022-12-18T02:42:28;-0.80;94.70
16980;DHT22;42288;52.182;21.156;2022-12-18T02:44:54;-0.70;94.70
16980;DHT22;42288;52.182;21.156;2022-12-18T02:47:23;-0.90;94.50
16980;DHT22;42288;52.182;21.156;2022-12-18T02:52:51;-1.10;95.60
16980;DHT22;42288;52.182;21.156;2022-12-18T02:55:33;-1.30;94.70
16980;DHT22;42288;52.182;21.156;2022-12-18T03:03:21;-1.50;94.90
16980;DHT22;42288;52.182;21.156;2022-12-18T03:05:53;-1.50;96.10
16980;DHT22;42288;52.182;21.156;2022-12-18T03:08:27;-1.50;95.90
16980;DHT22;42288;52.182;21.156;2022-12-18T03:11:10;-1.30;96.00
16980;DHT22;42288;52.182;21.156;2022-12-18T03:13:43;-1.20;95.70
16980;DHT22;42288;52.182;21.156;2022-12-18T03:16:14;-1.40;95.10
16980;DHT22;42288;52.182;21.156;2022-12-18T03:18:49;-1.50;95.10
16980;DHT22;42288;52.182;21.156;2022-12-18T03:21:21;-1.80;95.60
16980;DHT22;42288;52.182;21.156;2022-12-18T03:23:49;-1.60;95.90
16980;DHT22;42288;52.182;21.156;2022-12-18T03:26:19;-1.60;96.00
16980;DHT22;42288;52.182;21.156;2022-12-18T03:28:51;-1.50;95.50
16980;DHT22;42288;52.182;21.156;2022-12-18T03:31:20;-1.50;95.70
16980;DHT22;42288;52.182;21.156;2022-12-18T03:33:55;-1.30;96.20
16980;DHT22;42288;52.182;21.156;2022-12-18T03:36:22;-1.30;95.70
16980;DHT22;42288;52.182;21.156;2022-12-18T03:38:49;-1.30;95.30
16980;DHT22;42288;52.182;21.156;2022-12-18T03:41:34;-1.40;95.30
16980;DHT22;42288;52.182;21.156;2022-12-18T03:46:35;-1.40;94.80
16980;DHT22;42288;52.182;21.156;2022-12-18T03:49:26;-1.20;94.90
16980;DHT22;42288;52.182;21.156;2022-12-18T03:52:06;-1.40;94.20
16980;DHT22;42288;52.182;21.156;2022-12-18T03:54:33;-1.70;94.50
16980;DHT22;42288;52.182;21.156;2022-12-18T03:57:07;-1.80;94.80
16980;DHT22;42288;52.182;21.156;2022-12-18T03:59:36;-1.70;95.60
16980;DHT22;42288;52.182;21.156;2022-12-18T04:02:04;-1.60;95.60
16980;DHT22;42288;52.182;21.156;2022-12-18T04:04:31;-1.60;95.80
16980;DHT22;42288;52.182;21.156;2022-12-18T04:06:57;-1.60;95.30
16980;DHT22;42288;52.182;21.156;2022-12-18T04:09:23;-1.50;95.30
16980;DHT22;42288;52.182;21.156;2022-12-18T04:11:49;-1.50;95.40
16980;DHT22;42288;52.182;21.156;2022-12-18T04:14:16;-1.80;95.00
16980;DHT22;42288;52.182;21.156;2022-12-18T04:16:42;-1.60;95.50
16980;DHT22;42288;52.182;21.156;2022-12-18T04:19:07;-1.50;95.30
16980;DHT22;42288;52.182;21.156;2022-12-18T04:21:33;-1.70;94.70
16980;DHT22;42288;52.182;21.156;2022-12-18T04:23:58;-1.60;95.10
16980;DHT22;42288;52.182;21.156;2022-12-18T04:26:24;-1.60;94.90
16980;DHT22;42288;52.182;21.156;2022-12-18T04:28:49;-1.70;95.30
16980;DHT22;42288;52.182;21.156;2022-12-18T04:31:15;-1.60;94.90
16980;DHT22;42288;52.182;21.156;2022-12-18T04:33:40;-1.70;94.60
16980;DHT22;42288;52.182;21.156;2022-12-18T04:36:06;-1.90;95.00
16980;DHT22;42288;52.182;21.156;2022-12-18T04:38:32;-1.80;95.20
16980;DHT22;42288;52.182;21.156;2022-12-18T04:40:58;-1.80;95.30
16980;DHT22;42288;52.182;21.156;2022-12-18T04:43:23;-2.10;95.60
16980;DHT22;42288;52.182;21.156;2022-12-18T04:45:49;-1.80;95.60
16980;DHT22;42288;52.182;21.156;2022-12-18T04:48:14;-1.90;95.60
16980;DHT22;42288;52.182;21.156;2022-12-18T04:50:40;-1.90;96.10
16980;DHT22;42288;52.182;21.156;2022-12-18T04:53:05;-1.90;96.00
16980;DHT22;42288;52.182;21.156;2022-12-18T04:55:31;-1.60;96.50
16980;DHT22;42288;52.182;21.156;2022-12-18T04:57:56;-1.40;96.10
16980;DHT22;42288;52.182;21.156;2022-12-18T05:00:22;-1.50;95.50
16980;DHT22;42288;52.182;21.156;2022-12-18T05:02:48;-1.50;95.60
16980;DHT22;42288;52.182;21.156;2022-12-18T05:05:13;-1.70;95.60
16980;DHT22;42288;52.182;21.156;2022-12-18T05:07:39;-1.70;95.60
16980;DHT22;42288;52.182;21.156;2022-12-18T05:10:05;-1.60;95.90
16980;DHT22;42288;52.182;21.156;2022-12-18T05:12:31;-1.50;95.60
16980;DHT22;42288;52.182;21.156;2022-12-18T05:14:56;-1.40;95.70
16980;DHT22;42288;52.182;21.156;2022-12-18T05:17:22;-1.60;95.30
16980;DHT22;42288;52.182;21.156;2022-12-18T05:19:47;-1.70;95.40
16980;DHT22;42288;52.182;21.156;2022-12-18T05:22:13;-1.90;95.30
16980;DHT22;42288;52.182;21.156;2022-12-18T05:24:38;-1.60;95.60
16980;DHT22;42288;52.182;21.156;2022-12-18T05:27:04;-1.30;94.80
16980;DHT22;42288;52.182;21.156;2022-12-18T05:29:29;-1.50;94.40
16980;DHT22;42288;52.182;21.156;2022-12-18T05:31:55;-1.60;94.90
16980;DHT22;42288;52.182;21.156;2022-12-18T05:34:20;-1.70;95.20
16980;DHT22;42288;52.182;21.156;2022-12-18T05:36:46;-1.80;95.30
16980;DHT22;42288;52.182;21.156;2022-12-18T05:39:12;-1.60;95.90
16980;DHT22;42288;52.182;21.156;2022-12-18T05:41:37;-1.50;95.60
16980;DHT22;42288;52.182;21.156;2022-12-18T05:44:03;-1.80;95.20
16980;DHT22;42288;52.182;21.156;2022-12-18T05:46:28;-1.90;95.60
16980;DHT22;42288;52.182;21.156;2022-12-18T05:48:55;-1.90;95.80
16980;DHT22;42288;52.182;21.156;2022-12-18T05:51:22;-2.00;95.70
16980;DHT22;42288;52.182;21.156;2022-12-18T05:53:47;-1.90;96.30
16980;DHT22;42288;52.182;21.156;2022-12-18T05:56:20;-1.80;96.00
16980;DHT22;42288;52.182;21.156;2022-12-18T05:58:46;-1.90;95.90
16980;DHT22;42288;52.182;21.156;2022-12-18T06:01:17;-2.00;95.70
16980;DHT22;42288;52.182;21.156;2022-12-18T06:03:44;-1.90;96.20
16980;DHT22;42288;52.182;21.156;2022-12-18T06:06:26;-1.80;96.60
16980;DHT22;42288;52.182;21.156;2022-12-18T06:08:53;-1.60;96.10
16980;DHT22;42288;52.182;21.156;2022-12-18T06:11:23;-1.50;96.10
16980;DHT22;42288;52.182;21.156;2022-12-18T06:13:50;-1.60;95.70
16980;DHT22;42288;52.182;21.156;2022-12-18T06:16:16;-2.00;94.90
16980;DHT22;42288;52.182;21.156;2022-12-18T06:18:41;-1.90;95.70
16980;DHT22;42288;52.182;21.156;2022-12-18T06:21:07;-1.90;96.30
16980;DHT22;42288;52.182;21.156;2022-12-18T06:23:33;-1.90;95.60
16980;DHT22;42288;52.182;21.156;2022-12-18T06:25:58;-1.60;96.60
16980;DHT22;42288;52.182;21.156;2022-12-18T06:28:24;-1.80;95.80
16980;DHT22;42288;52.182;21.156;2022-12-18T06:30:49;-1.60;96.30
16980;DHT22;42288;52.182;21.156;2022-12-18T06:33:16;-1.40;96.20
16980;DHT22;42288;52.182;21.156;2022-12-18T06:35:42;-1.60;95.10
16980;DHT22;42288;52.182;21.156;2022-12-18T06:38:07;-1.40;95.90
16980;DHT22;42288;52.182;21.156;2022-12-18T06:40:33;-1.40;95.60
16980;DHT22;42288;52.182;21.156;2022-12-18T06:42:59;-1.90;94.40
16980;DHT22;42288;52.182;21.156;2022-12-18T06:45:24;-1.80;95.90
16980;DHT22;42288;52.182;21.156;2022-12-18T06:47:50;-1.70;96.20
16980;DHT22;42288;52.182;21.156;2022-12-18T06:50:16;-1.80;95.80
16980;DHT22;42288;52.182;21.156;2022-12-18T06:52:42;-1.60;96.20
16980;DHT22;42288;52.182;21.156;2022-12-18T06:55:09;-1.60;96.00
16980;DHT22;42288;52.182;21.156;2022-12-18T06:57:35;-1.20;96.30
16980;DHT22;42288;52.182;21.156;2022-12-18T07:00:01;-1.40;94.80
16980;DHT22;42288;52.182;21.156;2022-12-18T07:02:26;-1.60;95.20
16980;DHT22;42288;52.182;21.156;2022-12-18T07:04:52;-1.60;95.90
16980;DHT22;42288;52.182;21.156;2022-12-18T07:07:17;-1.10;96.60
16980;DHT22;42288;52.182;21.156;2022-12-18T07:09:43;-1.00;95.20
16980;DHT22;42288;52.182;21.156;2022-12-18T07:12:09;-0.80;94.80
16980;DHT22;42288;52.182;21.156;2022-12-18T07:14:34;-1.30;94.10
16980;DHT22;42288;52.182;21.156;2022-12-18T07:17:00;-1.10;94.00
16980;DHT22;42288;52.182;21.156;2022-12-18T07:19:25;-1.00;93.90
16980;DHT22;42288;52.182;21.156;2022-12-18T07:21:51;-1.10;94.00
16980;DHT22;42288;52.182;21.156;2022-12-18T07:24:17;-1.10;94.30
16980;DHT22;42288;52.182;21.156;2022-12-18T07:26:42;-1.20;94.70
16980;DHT22;42288;52.182;21.156;2022-12-18T07:29:10;-1.30;94.80
16980;DHT22;42288;52.182;21.156;2022-12-18T07:31:36;-1.20;95.30
16980;DHT22;42288;52.182;21.156;2022-12-18T07:34:01;-1.30;95.20
16980;DHT22;42288;52.182;21.156;2022-12-18T07:36:27;-1.40;95.50
16980;DHT22;42288;52.182;21.156;2022-12-18T07:38:52;-1.50;95.80
16980;DHT22;42288;52.182;21.156;2022-12-18T07:41:18;-1.60;96.20
16980;DHT22;42288;52.182;21.156;2022-12-18T07:43:44;-1.60;96.30
16980;DHT22;42288;52.182;21.156;2022-12-18T07:46:11;-1.40;96.20
16980;DHT22;42288;52.182;21.156;2022-12-18T07:48:39;-1.40;96.40
16980;DHT22;42288;52.182;21.156;2022-12-18T07:51:06;-1.30;96.50
16980;DHT22;42288;52.182;21.156;2022-12-18T07:53:33;-1.00;96.50
16980;DHT22;42288;52.182;21.156;2022-12-18T07:56:10;-1.30;95.40
16980;DHT22;42288;52.182;21.156;2022-12-18T07:58:36;-1.20;95.90
16980;DHT22;42288;52.182;21.156;2022-12-18T08:01:07;-0.90;95.30
16980;DHT22;42288;52.182;21.156;2022-12-18T08:03:33;-1.30;95.20
16980;DHT22;42288;52.182;21.156;2022-12-18T08:06:03;-1.50;95.50
16980;DHT22;42288;52.182;21.156;2022-12-18T08:08:29;-1.20;96.10
16980;DHT22;42288;52.182;21.156;2022-12-18T08:10:55;-1.10;95.70
16980;DHT22;42288;52.182;21.156;2022-12-18T08:13:21;-1.30;95.10
16980;DHT22;42288;52.182;21.156;2022-12-18T08:15:54;-1.00;95.70
16980;DHT22;42288;52.182;21.156;2022-12-18T08:18:20;-1.00;95.20
16980;DHT22;42288;52.182;21.156;2022-12-18T08:20:46;-0.90;95.20
16980;DHT22;42288;52.182;21.156;2022-12-18T08:23:11;-0.90;95.60
16980;DHT22;42288;52.182;21.156;2022-12-18T08:25:37;-0.60;95.80
16980;DHT22;42288;52.182;21.156;2022-12-18T08:28:02;-0.70;94.90
16980;DHT22;42288;52.182;21.156;2022-12-18T08:30:28;-0.70;95.00
16980;DHT22;42288;52.182;21.156;2022-12-18T08:32:53;-0.40;95.30
16980;DHT22;42288;52.182;21.156;2022-12-18T08:35:19;-0.40;94.20
16980;DHT22;42288;52.182;21.156;2022-12-18T08:37:44;-0.30;94.40
16980;DHT22;42288;52.182;21.156;2022-12-18T08:40:10;-0.30;94.40
16980;DHT22;42288;52.182;21.156;2022-12-18T08:42:36;-0.30;94.70
16980;DHT22;42288;52.182;21.156;2022-12-18T08:45:20;0.00;94.90
16980;DHT22;42288;52.182;21.156;2022-12-18T08:47:45;0.00;94.80
16980;DHT22;42288;52.182;21.156;2022-12-18T08:50:11;0.10;93.90
16980;DHT22;42288;52.182;21.156;2022-12-18T08:52:37;0.10;94.40
16980;DHT22;42288;52.182;21.156;2022-12-18T08:55:02;0.00;94.30
16980;DHT22;42288;52.182;21.156;2022-12-18T08:57:28;0.00;94.10
16980;DHT22;42288;52.182;21.156;2022-12-18T08:59:53;0.30;93.50
16980;DHT22;42288;52.182;21.156;2022-12-18T09:02:19;0.20;93.40
16980;DHT22;42288;52.182;21.156;2022-12-18T09:04:47;0.00;93.70
16980;DHT22;42288;52.182;21.156;2022-12-18T09:07:13;0.10;94.30
16980;DHT22;42288;52.182;21.156;2022-12-18T09:09:38;-0.20;94.00
16980;DHT22;42288;52.182;21.156;2022-12-18T09:12:04;0.00;93.40
16980;DHT22;42288;52.182;21.156;2022-12-18T09:14:29;0.10;94.00
16980;DHT22;42288;52.182;21.156;2022-12-18T09:16:55;0.00;93.80
16980;DHT22;42288;52.182;21.156;2022-12-18T09:19:20;0.20;94.40
16980;DHT22;42288;52.182;21.156;2022-12-18T09:21:46;0.30;94.00
16980;DHT22;42288;52.182;21.156;2022-12-18T09:24:12;0.60;93.80
16980;DHT22;42288;52.182;21.156;2022-12-18T09:26:38;0.50;93.10
16980;DHT22;42288;52.182;21.156;2022-12-18T09:29:04;0.50;93.50
16980;DHT22;42288;52.182;21.156;2022-12-18T09:31:32;0.50;93.30
16980;DHT22;42288;52.182;21.156;2022-12-18T09:33:58;0.80;93.50
16980;DHT22;42288;52.182;21.156;2022-12-18T09:36:23;0.90;92.30
16980;DHT22;42288;52.182;21.156;2022-12-18T09:38:49;1.10;92.00
16980;DHT22;42288;52.182;21.156;2022-12-18T09:44:20;1.20;92.10
16980;DHT22;42288;52.182;21.156;2022-12-18T09:47:10;1.30;90.30
16980;DHT22;42288;52.182;21.156;2022-12-18T09:49:44;1.20;90.00
16980;DHT22;42288;52.182;21.156;2022-12-18T09:54:42;0.70;91.20
16980;DHT22;42288;52.182;21.156;2022-12-18T09:57:21;0.80;91.80
16980;DHT22;42288;52.182;21.156;2022-12-18T10:00:04;1.10;91.80
16980;DHT22;42288;52.182;21.156;2022-12-18T10:02:32;1.20;90.90
16980;DHT22;42288;52.182;21.156;2022-12-18T10:05:07;1.30;90.20
16980;DHT22;42288;52.182;21.156;2022-12-18T10:13:30;1.30;91.00
16980;DHT22;42288;52.182;21.156;2022-12-18T10:19:01;1.20;90.70
16980;DHT22;42288;52.182;21.156;2022-12-18T10:21:37;1.30;90.30
16980;DHT22;42288;52.182;21.156;2022-12-18T10:26:43;1.30;90.10
16980;DHT22;42288;52.182;21.156;2022-12-18T10:29:12;1.20;90.60
16980;DHT22;42288;52.182;21.156;2022-12-18T10:31:39;1.20;90.70
16980;DHT22;42288;52.182;21.156;2022-12-18T10:34:08;1.30;89.60
16980;DHT22;42288;52.182;21.156;2022-12-18T10:36:34;1.10;89.90
16980;DHT22;42288;52.182;21.156;2022-12-18T10:41:41;0.90;90.70
16980;DHT22;42288;52.182;21.156;2022-12-18T10:44:17;1.00;90.40
16980;DHT22;42288;52.182;21.156;2022-12-18T10:46:49;1.10;90.50
16980;DHT22;42288;52.182;21.156;2022-12-18T10:49:27;0.80;90.70
16980;DHT22;42288;52.182;21.156;2022-12-18T10:52:06;0.60;91.30
16980;DHT22;42288;52.182;21.156;2022-12-18T10:54:33;0.30;92.00
16980;DHT22;42288;52.182;21.156;2022-12-18T10:59:57;0.90;92.00
16980;DHT22;42288;52.182;21.156;2022-12-18T11:02:37;1.00;91.60
16980;DHT22;42288;52.182;21.156;2022-12-18T11:05:22;1.10;90.90
16980;DHT22;42288;52.182;21.156;2022-12-18T11:07:49;1.00;90.80
16980;DHT22;42288;52.182;21.156;2022-12-18T11:10:20;1.10;91.50
16980;DHT22;42288;52.182;21.156;2022-12-18T11:12:46;0.90;91.60
16980;DHT22;42288;52.182;21.156;2022-12-18T11:15:20;1.20;91.70
16980;DHT22;42288;52.182;21.156;2022-12-18T11:17:48;1.10;91.10
16980;DHT22;42288;52.182;21.156;2022-12-18T11:22:56;1.10;90.30
16980;DHT22;42288;52.182;21.156;2022-12-18T11:25:22;1.00;91.10
16980;DHT22;42288;52.182;21.156;2022-12-18T11:27:51;0.90;91.40
16980;DHT22;42288;52.182;21.156;2022-12-18T11:30:21;0.40;91.20
16980;DHT22;42288;52.182;21.156;2022-12-18T11:32:49;0.70;92.20
16980;DHT22;42288;52.182;21.156;2022-12-18T11:35:30;1.10;90.80
16980;DHT22;42288;52.182;21.156;2022-12-18T11:38:01;0.90;90.60
16980;DHT22;42288;52.182;21.156;2022-12-18T11:40:41;1.00;91.30
16980;DHT22;42288;52.182;21.156;2022-12-18T11:43:14;1.00;91.10
16980;DHT22;42288;52.182;21.156;2022-12-18T11:45:47;1.00;91.40
16980;DHT22;42288;52.182;21.156;2022-12-18T11:50:57;1.20;90.60
16980;DHT22;42288;52.182;21.156;2022-12-18T11:53:25;1.40;91.10
16980;DHT22;42288;52.182;21.156;2022-12-18T11:59:09;1.00;92.10
16980;DHT22;42288;52.182;21.156;2022-12-18T12:05:19;1.20;90.60
16980;DHT22;42288;52.182;21.156;2022-12-18T12:10:50;1.20;90.50
16980;DHT22;42288;52.182;21.156;2022-12-18T12:13:43;1.30;90.30
16980;DHT22;42288;52.182;21.156;2022-12-18T12:16:22;1.20;90.80
16980;DHT22;42288;52.182;21.156;2022-12-18T12:19:18;1.00;91.00
16980;DHT22;42288;52.182;21.156;2022-12-18T12:21:54;1.00;90.90
16980;DHT22;42288;52.182;21.156;2022-12-18T12:27:31;1.00;91.30
16980;DHT22;42288;52.182;21.156;2022-12-18T12:30:35;1.20;91.60
16980;DHT22;42288;52.182;21.156;2022-12-18T12:33:43;1.30;91.90
16980;DHT22;42288;52.182;21.156;2022-12-18T12:39:11;1.70;90.90
16980;DHT22;42288;52.182;21.156;2022-12-18T12:41:41;1.40;90.20
16980;DHT22;42288;52.182;21.156;2022-12-18T12:44:30;1.70;90.30
16980;DHT22;42288;52.182;21.156;2022-12-18T12:47:00;1.10;88.20
16980;DHT22;42288;52.182;21.156;2022-12-18T12:49:31;1.00;90.60
16980;DHT22;42288;52.182;21.156;2022-12-18T12:52:11;1.40;90.90
16980;DHT22;42288;52.182;21.156;2022-12-18T12:54:38;1.60;90.30
16980;DHT22;42288;52.182;21.156;2022-12-18T12:57:34;1.40;90.00
16980;DHT22;42288;52.182;21.156;2022-12-18T13:02:44;0.70;91.70
16980;DHT22;42288;52.182;21.156;2022-12-18T13:08:04;0.40;91.20
16980;DHT22;42288;52.182;21.156;2022-12-18T13:10:32;0.50;92.20
16980;DHT22;42288;52.182;21.156;2022-12-18T13:13:07;0.60;92.10
16980;DHT22;42288;52.182;21.156;2022-12-18T13:15:45;0.90;92.40
16980;DHT22;42288;52.182;21.156;2022-12-18T13:20:44;0.80;92.10
16980;DHT22;42288;52.182;21.156;2022-12-18T13:23:26;0.70;91.80
16980;DHT22;42288;52.182;21.156;2022-12-18T13:28:23;0.90;91.60
16980;DHT22;42288;52.182;21.156;2022-12-18T13:30:52;0.60;91.20
16980;DHT22;42288;52.182;21.156;2022-12-18T13:33:36;0.70;92.20
16980;DHT22;42288;52.182;21.156;2022-12-18T13:36:09;0.70;92.20
16980;DHT22;42288;52.182;21.156;2022-12-18T13:38:36;0.90;92.40
16980;DHT22;42288;52.182;21.156;2022-12-18T13:43:43;0.70;92.30
16980;DHT22;42288;52.182;21.156;2022-12-18T13:49:04;0.10;92.20
16980;DHT22;42288;52.182;21.156;2022-12-18T13:51:33;0.20;93.00
16980;DHT22;42288;52.182;21.156;2022-12-18T13:54:00;0.00;92.90
16980;DHT22;42288;52.182;21.156;2022-12-18T13:56:30;-0.10;93.50
16980;DHT22;42288;52.182;21.156;2022-12-18T14:04:22;-0.60;95.10
16980;DHT22;42288;52.182;21.156;2022-12-18T14:06:55;-0.10;95.40
16980;DHT22;42288;52.182;21.156;2022-12-18T14:09:30;0.00;94.70
16980;DHT22;42288;52.182;21.156;2022-12-18T14:11:57;-0.20;94.10
16980;DHT22;42288;52.182;21.156;2022-12-18T14:14:44;-0.20;93.60
16980;DHT22;42288;52.182;21.156;2022-12-18T14:17:11;-0.40;93.70
16980;DHT22;42288;52.182;21.156;2022-12-18T14:19:41;-0.30;94.40
16980;DHT22;42288;52.182;21.156;2022-12-18T14:22:21;-0.40;94.00
16980;DHT22;42288;52.182;21.156;2022-12-18T14:25:13;-0.20;94.50
16980;DHT22;42288;52.182;21.156;2022-12-18T14:30:40;-0.50;94.60
16980;DHT22;42288;52.182;21.156;2022-12-18T14:33:19;-0.70;94.50
16980;DHT22;42288;52.182;21.156;2022-12-18T14:36:02;-0.50;95.00
16980;DHT22;42288;52.182;21.156;2022-12-18T14:38:37;-0.60;94.50
16980;DHT22;42288;52.182;21.156;2022-12-18T14:41:08;-0.50;94.80
16980;DHT22;42288;52.182;21.156;2022-12-18T14:43:37;-0.50;95.10
16980;DHT22;42288;52.182;21.156;2022-12-18T14:48:59;-0.30;95.30
16980;DHT22;42288;52.182;21.156;2022-12-18T14:51:26;-0.50;94.90
16980;DHT22;42288;52.182;21.156;2022-12-18T14:54:00;-0.40;95.20
16980;DHT22;42288;52.182;21.156;2022-12-18T14:56:31;-0.30;95.10
16980;DHT22;42288;52.182;21.156;2022-12-18T14:59:05;-0.70;94.20
16980;DHT22;42288;52.182;21.156;2022-12-18T15:01:36;-0.60;95.20
16980;DHT22;42288;52.182;21.156;2022-12-18T15:04:04;-0.40;95.60
16980;DHT22;42288;52.182;21.156;2022-12-18T15:06:36;-0.10;95.40
16980;DHT22;42288;52.182;21.156;2022-12-18T15:09:18;0.20;95.20
16980;DHT22;42288;52.182;21.156;2022-12-18T15:11:46;0.10;94.40
16980;DHT22;42288;52.182;21.156;2022-12-18T15:14:31;0.00;94.40
16980;DHT22;42288;52.182;21.156;2022-12-18T15:16:59;0.00;94.70
16980;DHT22;42288;52.182;21.156;2022-12-18T15:19:38;0.00;94.60
16980;DHT22;42288;52.182;21.156;2022-12-18T15:22:11;0.00;94.30
16980;DHT22;42288;52.182;21.156;2022-12-18T15:24:40;-0.30;93.70
16980;DHT22;42288;52.182;21.156;2022-12-18T15:27:23;-0.40;94.30
16980;DHT22;42288;52.182;21.156;2022-12-18T15:32:33;-0.30;94.90
16980;DHT22;42288;52.182;21.156;2022-12-18T15:37:39;-0.50;94.10
16980;DHT22;42288;52.182;21.156;2022-12-18T15:40:05;-0.70;94.40
16980;DHT22;42288;52.182;21.156;2022-12-18T15:42:32;-0.70;94.20
16980;DHT22;42288;52.182;21.156;2022-12-18T15:45:16;-0.60;94.80
16980;DHT22;42288;52.182;21.156;2022-12-18T15:47:41;-0.50;94.80
16980;DHT22;42288;52.182;21.156;2022-12-18T15:50:07;-0.40;94.20
16980;DHT22;42288;52.182;21.156;2022-12-18T15:52:40;-0.20;94.50
16980;DHT22;42288;52.182;21.156;2022-12-18T15:55:12;-0.30;94.40
16980;DHT22;42288;52.182;21.156;2022-12-18T15:57:57;-0.20;94.50
16980;DHT22;42288;52.182;21.156;2022-12-18T16:00:23;-0.60;93.90
16980;DHT22;42288;52.182;21.156;2022-12-18T16:02:48;-0.60;94.50
16980;DHT22;42288;52.182;21.156;2022-12-18T16:05:15;-0.30;94.60
16980;DHT22;42288;52.182;21.156;2022-12-18T16:07:42;0.00;94.10
16980;DHT22;42288;52.182;21.156;2022-12-18T16:10:08;-0.30;93.30
16980;DHT22;42288;52.182;21.156;2022-12-18T16:12:34;-0.70;93.80
16980;DHT22;42288;52.182;21.156;2022-12-18T16:15:00;-0.80;94.10
16980;DHT22;42288;52.182;21.156;2022-12-18T16:17:26;-1.00;94.50
16980;DHT22;42288;52.182;21.156;2022-12-18T16:19:51;-0.90;94.80
16980;DHT22;42288;52.182;21.156;2022-12-18T16:22:22;-1.00;94.60
16980;DHT22;42288;52.182;21.156;2022-12-18T16:24:50;-1.00;94.90
16980;DHT22;42288;52.182;21.156;2022-12-18T16:27:16;-0.90;95.30
16980;DHT22;42288;52.182;21.156;2022-12-18T16:29:42;-1.10;95.10
16980;DHT22;42288;52.182;21.156;2022-12-18T16:32:13;-1.40;95.40
16980;DHT22;42288;52.182;21.156;2022-12-18T16:34:39;-1.10;95.90
16980;DHT22;42288;52.182;21.156;2022-12-18T16:37:07;-1.20;95.60
16980;DHT22;42288;52.182;21.156;2022-12-18T16:39:33;-1.00;95.70
16980;DHT22;42288;52.182;21.156;2022-12-18T16:42:08;-0.90;95.20
16980;DHT22;42288;52.182;21.156;2022-12-18T16:44:35;-0.70;95.00
16980;DHT22;42288;52.182;21.156;2022-12-18T16:47:00;-1.20;94.80
16980;DHT22;42288;52.182;21.156;2022-12-18T16:49:28;-1.10;95.60
16980;DHT22;42288;52.182;21.156;2022-12-18T16:51:54;-1.50;96.40
16980;DHT22;42288;52.182;21.156;2022-12-18T16:54:20;-1.30;96.40
16980;DHT22;42288;52.182;21.156;2022-12-18T16:56:45;-1.20;96.50
16980;DHT22;42288;52.182;21.156;2022-12-18T16:59:14;-1.40;95.60
16980;DHT22;42288;52.182;21.156;2022-12-18T17:01:40;-1.30;96.00
16980;DHT22;42288;52.182;21.156;2022-12-18T17:04:06;-1.70;95.90
16980;DHT22;42288;52.182;21.156;2022-12-18T17:06:35;-1.70;96.60
16980;DHT22;42288;52.182;21.156;2022-12-18T17:09:04;-2.20;97.10
16980;DHT22;42288;52.182;21.156;2022-12-18T17:11:31;-2.10;97.70
16980;DHT22;42288;52.182;21.156;2022-12-18T17:13:57;-1.90;97.60
16980;DHT22;42288;52.182;21.156;2022-12-18T17:16:23;-1.70;96.90
16980;DHT22;42288;52.182;21.156;2022-12-18T17:18:50;-1.70;96.80